Latest Weather Observations for Thredbo Top Station

IDN60901

Issued at 9:41 am EDT Tuesday 23 December 2014 (issued every 10 minutes, with the page automatically refreshed every 10 minutes)

About weather observations | Map of Canberra area stations | Latest observations for Canberra area | Other Formats
Station Details ID: 071032 Name: THREDBO AWS Lat: -36.49 Lon: 148.29 Height: 1957.0 m
Data from the previous 72 hours. | See also: Recent months at Thredbo Top Station
Date/Time
EDT
Tmp

°C
App
Tmp
°C
Dew
Point
°C
Rel
Hum
%
Delta-T

°C
Wind Press
QNH
hPa
Press
MSL
hPa
Rain
since
9 am
mm
Dir
 
Spd
km/h
Gust
km/h
Spd
kts
Gust
kts
23/09:30am 9.4 -1.0 9.3 99 0.1 NNW 54 74 29 40 1016.5 1013.9 1.2
23/09:06am 9.3 -1.5 9.2 99 0.1 NNW 56 82 30 44 1016.6 1014.0 0.2
23/09:00am 9.4 -0.2 9.3 99 0.1 NNW 50 67 27 36 1016.5 1013.9 25.2
23/08:30am 9.4 0.5 9.3 99 0.1 NNW 46 65 25 35 1016.2 1013.6 22.0
23/08:00am 8.9 -1.6 8.8 99 0.1 NNW 54 82 29 44 1015.8 1013.2 20.0
23/07:30am 9.1 -1.1 8.6 97 0.3 NNW 52 76 28 41 1015.8 1013.2 20.0
23/07:00am 8.9 -0.5 8.8 99 0.1 NNW 48 67 26 36 1015.8 1013.2 19.8
23/06:30am 9.2 -1.8 9.1 99 0.1 NNW 57 78 31 42 1015.9 1013.3 19.8
23/06:07am 9.7 -2.0 9.4 98 0.2 NNW 61 80 33 43 1015.6 1013.0 19.8
23/06:00am 9.7 -0.7 9.1 96 0.3 NNW 54 76 29 41 1015.6 1013.0 19.6
23/05:58am 9.9 0.3 9.3 96 0.3 NNW 50 76 27 41 1015.5 1012.9 19.4
23/05:37am 10.0 1.9 9.9 99 0.1 NNW 43 65 23 35 1015.4 1012.7 18.6
23/05:30am 10.0 1.9 9.9 99 0.1 N 43 56 23 30 1015.5 1012.9 18.6
23/05:23am 10.1 3.0 9.6 97 0.3 N 37 56 20 30 1015.4 1012.7 18.6
23/05:00am 10.0 2.8 9.2 95 0.4 N 37 50 20 27 1015.4 1012.7 18.6
23/04:30am 9.8 4.0 9.5 98 0.2 N 30 43 16 23 1015.4 1012.7 18.6
23/04:00am 9.8 3.0 9.3 97 0.3 NNW 35 44 19 24 1015.4 1012.7 18.4
23/03:30am 9.8 1.9 9.5 98 0.2 NNW 41 56 22 30 1015.6 1013.0 18.4
23/03:00am 10.0 3.8 9.9 99 0.1 N 33 54 18 29 1016.2 1013.6 17.6
23/02:57am 9.7 3.9 9.6 99 0.1 N 30 48 16 26 1016.3 1013.7 17.4
23/02:30am 9.3 1.4 9.2 99 0.1 NNW 41 52 22 28 1016.5 1013.9 16.2
23/02:00am 9.5 1.1 8.9 96 0.3 NNW 43 54 23 29 1017.2 1014.6 15.8
23/01:30am 9.4 1.7 8.5 94 0.5 N 39 50 21 27 1017.8 1015.2 15.2
23/01:00am 9.7 3.7 8.6 93 0.6 N 30 39 16 21 1017.9 1015.3 14.8
23/12:30am 9.7 3.2 8.8 94 0.5 N 33 44 18 24 1018.6 1016.0 14.2
23/12:00am 9.8 1.6 9.7 99 0.1 NNW 43 54 23 29 1018.6 1016.0 13.2
 
Date/Time
EDT
Tmp

°C
App
Tmp
°C
Dew
Point
°C
Rel
Hum
%
Delta-T

°C
Wind Press
QNH
hPa
Press
MSL
hPa
Rain
since
9 am
mm
Dir
 
Spd
km/h
Gust
km/h
Spd
kts
Gust
kts
22/11:30pm 10.0 1.6 9.1 94 0.5 N 43 59 23 32 1018.7 1016.1 11.8
22/11:25pm 10.1 2.5 8.9 92 0.6 N 39 59 21 32 1018.7 1016.1 11.8
22/11:00pm 10.6 4.0 8.7 88 1.0 N 33 46 18 25 1018.8 1016.3 11.6
22/10:47pm 11.0 6.1 8.6 85 1.3 NNE 24 41 13 22 1018.9 1016.4 11.6
22/10:30pm 9.8 6.7 8.7 93 0.6 NNE 15 20 8 11 1018.9 1016.4 11.6
22/10:00pm 9.3 5.9 9.0 98 0.2 N 17 22 9 12 1019.6 1017.1 11.0
22/09:30pm 9.5 5.6 8.7 95 0.4 N 19 24 10 13 1019.7 1017.2 10.4
22/09:00pm 9.2 5.2 9.1 99 0.1 N 20 26 11 14 1019.6 1017.1 10.4
22/08:30pm 9.2 5.2 9.1 99 0.1 N 20 26 11 14 1019.8 1017.3 10.4
22/08:00pm 9.5 6.5 9.4 99 0.1 N 15 22 8 12 1019.7 1017.2 10.2
22/07:30pm 10.5 7.8 8.9 90 0.9 N 13 22 7 12 1018.9 1016.4 9.0
22/07:00pm 12.0 8.6 7.7 75 2.3 NW 15 19 8 10 1018.8 1016.3 9.0
22/06:30pm 10.7 7.3 9.0 89 0.9 NNW 17 24 9 13 1018.7 1016.1 9.0
22/06:00pm 10.8 7.5 8.2 84 1.4 N 15 22 8 12 1018.6 1016.0 8.8
22/05:30pm 10.6 7.8 8.4 86 1.2 NW 13 17 7 9 1019.1 1016.6 8.6
22/05:00pm 9.8 3.5 9.0 95 0.4 NW 32 46 17 25 1020.4 1017.9 6.4
22/04:30pm 9.8 1.3 9.3 97 0.3 NW 44 57 24 31 1020.8 1018.4 3.6
22/04:00pm 10.9 0.6 9.8 93 0.6 NNW 54 76 29 41 1020.0 1017.6 0.2
22/03:53pm 12.1 4.3 8.2 77 2.1 NNW 39 69 21 37 1018.8 1016.3 0.0
22/03:52pm 12.6 5.8 7.9 73 2.5 NNW 33 54 18 29 1018.6 1016.0 0.0
22/03:46pm 14.2 8.3 7.3 63 3.6 NW 28 52 15 28 1018.3 1015.8 0.0
22/03:30pm 16.5 11.2 6.9 53 5.1 NW 24 32 13 17 1017.8 1015.2 0.0
22/03:00pm 18.4 14.0 7.2 48 6.1 WNW 20 37 11 20 1017.4 1014.8 0.0
22/02:30pm 18.6 13.7 8.6 52 5.6 NW 24 39 13 21 1017.8 1015.2 0.0
22/02:00pm 18.4 12.4 8.7 53 5.4 NNW 30 44 16 24 1018.6 1016.0 0.0
22/01:30pm 17.4 11.0 8.5 56 4.9 NNW 32 44 17 24 1019.1 1016.6 0.0
22/01:00pm 16.9 11.8 9.1 60 4.3 NNW 26 43 14 23 1019.6 1017.1 0.0
22/12:30pm 17.9 12.7 9.0 56 5.0 NNW 26 39 14 21 1020.2 1017.7 0.0
22/12:15pm 16.8 10.5 7.2 53 5.1 NNW 30 50 16 27 1020.6 1018.1 0.0
22/12:00pm 17.1 11.7 8.0 55 4.9 NNW 26 41 14 22 1020.6 1018.1 0.0
22/11:30am 15.9 9.2 8.2 60 4.2 NNW 33 44 18 24 1020.5 1018.0 0.0
22/11:00am 15.9 9.5 7.1 56 4.7 NNW 30 44 16 24 1020.6 1018.1 0.0
22/10:41am 16.2 9.9 5.8 50 5.4 NNW 28 46 15 25 1020.5 1018.0 0.0
22/10:30am 16.0 8.7 4.4 46 5.9 NNW 32 43 17 23 1020.4 1017.9 0.0
22/10:00am 16.0 9.0 4.1 45 6.0 NNW 30 39 16 21 1020.3 1017.8 0.0
22/09:30am 16.1 10.8 4.8 47 5.8 N 22 32 12 17 1020.3 1017.8 0.0
22/09:00am 15.7 10.7 3.8 45 5.9 NNW 19 30 10 16 1020.4 1017.9 0.0
22/08:30am 15.4 10.8 3.9 46 5.7 NNW 17 24 9 13 1020.3 1017.8 0.0
22/08:00am 14.9 11.2 4.6 50 5.2 NNW 13 19 7 10 1020.3 1017.8 0.0
22/07:30am 14.3 11.1 4.9 53 4.7 NNW 11 17 6 9 1020.3 1017.8 0.0
22/07:00am 13.9 10.1 3.9 51 4.9 NNW 13 17 7 9 1020.0 1017.6 0.0
22/06:30am 11.9 7.4 4.2 59 3.8 NW 17 19 9 10 1020.0 1017.6 0.0
22/06:00am 11.6 7.0 3.6 58 3.8 NW 17 20 9 11 1019.8 1017.3 0.0
22/05:30am 11.6 6.4 3.6 58 3.8 NW 20 24 11 13 1019.7 1017.2 0.0
22/05:00am 11.8 6.6 3.8 58 3.9 NW 20 26 11 14 1019.4 1016.8 0.0
22/04:30am 10.2 5.1 4.1 66 2.9 NNW 20 26 11 14 1019.2 1016.7 0.0
22/04:00am 10.9 6.0 4.1 63 3.3 NW 19 24 10 13 1019.1 1016.6 0.0
22/03:30am 9.2 4.2 4.6 73 2.2 NNW 20 24 11 13 1019.4 1016.8 0.0
22/03:00am 9.2 3.8 4.6 73 2.2 NNW 22 24 12 13 1019.6 1017.1 0.0
22/02:30am 8.3 3.8 4.3 76 1.9 NNW 17 20 9 11 1019.8 1017.3 0.0
22/02:00am 8.2 3.4 4.4 77 1.8 NNW 19 22 10 12 1020.0 1017.6 0.0
22/01:30am 8.3 3.2 4.3 76 1.9 NNW 20 22 11 12 1020.2 1017.7 0.0
22/01:00am 9.0 4.9 4.6 74 2.1 NNW 15 19 8 10 1020.5 1018.0 0.0
22/12:30am 8.4 3.9 4.2 75 2.0 NNW 17 19 9 10 1020.6 1018.1 0.0
22/12:00am 9.1 5.0 4.5 73 2.2 NNW 15 17 8 9 1020.7 1018.3 0.0
 
Date/Time
EDT
Tmp

°C
App
Tmp
°C
Dew
Point
°C
Rel
Hum
%
Delta-T

°C
Wind Press
QNH
hPa
Press
MSL
hPa
Rain
since
9 am
mm
Dir
 
Spd
km/h
Gust
km/h
Spd
kts
Gust
kts
21/11:30pm 7.7 3.9 4.1 78 1.7 NNW 13 17 7 9 1020.7 1018.3 0.0
21/11:00pm 8.2 4.1 6.3 88 0.9 NNW 17 19 9 10 1020.8 1018.4 0.0
21/10:30pm 7.7 4.6 5.5 86 1.1 NW 11 15 6 8 1020.8 1018.4 0.0
21/10:00pm 8.8 6.5 5.0 77 1.8 NW 6 11 3 6 1021.0 1018.5 0.0
21/09:30pm 9.3 7.3 4.3 71 2.4 NNW 4 7 2 4 1020.7 1018.3 0.0
21/09:00pm 8.5 5.5 4.1 74 2.1 NW 9 11 5 6 1020.4 1017.9 0.0
21/08:30pm 11.2 8.4 5.1 66 3.0 WNW 9 11 5 6 1020.2 1017.7 0.0
21/08:00pm 12.2 9.3 4.4 59 3.8 WNW 9 11 5 6 1019.9 1017.4 0.0
21/07:30pm 13.7 10.7 4.3 53 4.7 W 9 11 5 6 1019.7 1017.2 0.0
21/07:00pm 14.2 10.8 4.2 51 5.0 W 11 19 6 10 1019.4 1016.8 0.0
21/06:30pm 15.1 11.8 4.8 50 5.2 W 11 20 6 11 1019.1 1016.6 0.0
21/06:00pm 15.0 11.2 3.8 47 5.5 WNW 13 22 7 12 1019.1 1016.6 0.0
21/05:30pm 14.0 9.9 4.3 52 4.8 NW 15 30 8 16 1019.1 1016.6 0.0
21/05:00pm 15.7 11.2 6.2 53 4.9 NNW 19 28 10 15 1019.4 1016.8 0.0
21/04:30pm 15.6 11.1 7.1 57 4.5 NW 20 32 11 17 1019.5 1017.0 0.0
21/04:00pm 14.1 9.1 6.5 60 3.9 NNW 22 35 12 19 1019.6 1017.1 0.0
21/03:30pm 14.4 8.7 6.7 60 4.0 NW 26 37 14 20 1019.8 1017.3 0.0
21/03:00pm 15.0 9.7 6.8 58 4.3 NW 24 41 13 22 1019.7 1017.2 0.0
21/02:36pm 14.6 8.1 6.4 58 4.3 NW 30 50 16 27 1019.9 1017.4 0.0
21/02:30pm 14.8 8.7 6.4 57 4.4 NW 28 41 15 22 1020.0 1017.6 0.0
21/02:00pm 15.2 9.0 6.0 54 4.8 NW 28 39 15 21 1019.8 1017.3 0.0
21/01:40pm 14.7 8.4 5.8 55 4.6 NW 28 46 15 25 1019.7 1017.2 0.0
21/01:30pm 15.3 9.5 6.1 54 4.8 NW 26 43 14 23 1019.8 1017.3 0.0
21/01:00pm 13.7 7.4 5.6 58 4.1 WNW 28 39 15 21 1020.0 1017.6 0.0
21/12:30pm 14.4 9.9 6.3 58 4.2 NW 19 33 10 18 1020.2 1017.7 0.0
21/12:00pm 14.6 8.2 5.1 53 4.8 NW 28 43 15 23 1020.0 1017.6 0.0
21/11:30am 13.6 6.3 4.5 54 4.5 NW 32 46 17 25 1020.0 1017.6 0.0
21/11:00am 13.3 5.8 4.5 55 4.4 NW 33 48 18 26 1020.3 1017.8 0.0
21/10:30am 12.8 4.6 4.8 58 4.0 NW 37 52 20 28 1020.5 1018.0 0.0
21/10:19am 13.3 6.0 4.5 55 4.4 WNW 32 52 17 28 1020.6 1018.1 0.0
21/10:00am 13.6 7.3 5.7 59 4.0 WNW 28 43 15 23 1020.4 1017.9 0.0
21/09:30am 13.0 6.5 4.9 58 4.0 NW 28 44 15 24 1020.3 1017.8 0.0
21/09:00am 12.1 4.5 4.1 58 3.9 NW 33 46 18 25 1020.2 1017.7 0.0
21/08:30am 12.1 5.0 5.3 63 3.4 NW 32 43 17 23 1019.6 1017.1 0.0
21/08:00am 11.4 3.9 4.4 62 3.4 NW 33 46 18 25 1019.4 1016.8 0.0
21/07:30am 10.4 3.0 5.2 70 2.6 NW 33 44 18 24 1019.2 1016.7 0.0
21/07:00am 9.9 2.1 4.7 70 2.5 NW 35 44 19 24 1019.2 1016.7 0.0
21/06:30am 9.7 1.0 4.1 68 2.7 NW 39 50 21 27 1019.2 1016.7 0.0
21/06:00am 9.0 1.8 5.7 80 1.6 NW 33 41 18 22 1019.2 1016.7 0.0
21/05:30am 8.8 2.2 5.9 82 1.4 NW 30 39 16 21 1019.2 1016.7 0.0
21/05:00am 8.7 3.0 6.7 87 1.0 NW 26 33 14 18 1019.1 1016.6 0.0
21/04:30am 8.6 3.2 6.4 86 1.1 NW 24 30 13 16 1019.2 1016.7 0.0
21/04:00am 8.7 3.0 6.7 87 1.0 NNW 26 32 14 17 1019.2 1016.7 0.0
21/03:30am 7.8 2.5 6.6 92 0.6 NNW 24 30 13 16 1019.5 1017.0 0.0
21/03:00am 8.0 2.7 6.6 91 0.7 NNW 24 28 13 15 1019.7 1017.2 0.0
21/02:30am 7.3 2.7 6.4 94 0.4 NNW 20 24 11 13 1020.0 1017.6 0.0
21/02:00am 7.4 2.9 6.3 93 0.5 NNW 19 22 10 12 1020.2 1017.7 0.0
21/01:30am 6.9 2.9 6.5 97 0.2 NNW 17 20 9 11 1020.3 1017.8 0.0
21/01:00am 5.7 1.5 5.6 99 0.0 NNW 17 19 9 10 1020.4 1017.9 0.0
21/12:30am 5.9 2.5 5.8 99 0.0 NNW 13 15 7 8 1020.4 1017.9 0.0
21/12:00am 6.9 3.3 6.8 99 0.0 NNW 15 19 8 10 1020.6 1018.1 0.0
 
Date/Time
EDT
Tmp

°C
App
Tmp
°C
Dew
Point
°C
Rel
Hum
%
Delta-T

°C
Wind Press
QNH
hPa
Press
MSL
hPa
Rain
since
9 am
mm
Dir
 
Spd
km/h
Gust
km/h
Spd
kts
Gust
kts
20/11:30pm 7.3 3.4 7.2 99 0.1 NNW 17 20 9 11 1020.8 1018.4 0.0
20/11:00pm 7.3 4.1 6.9 97 0.2 NNW 13 17 7 9 1020.8 1018.4 0.0
20/10:30pm 8.8 7.3 8.5 98 0.2 NE 6 9 3 5 1020.8 1018.4 0.0
20/10:00pm 8.9 6.9 8.5 97 0.2 ENE 9 13 5 7 1020.8 1018.4 0.0
20/09:30pm 9.1 7.5 8.2 94 0.5 NE 6 11 3 6 1020.5 1018.0 0.0
20/09:00pm 9.2 7.4 8.0 92 0.6 NE 7 11 4 6 1020.3 1017.8 0.0
20/08:30pm 9.5 6.5 7.9 90 0.8 NE 13 19 7 10 1019.9 1017.4 0.0
20/08:00pm 10.8 9.3 8.4 85 1.3 SE 6 9 3 5 1019.6 1017.1 0.0
20/07:30pm 11.5 9.9 7.8 78 1.9 SSW 6 11 3 6 1019.2 1016.7 0.0
20/07:00pm 11.7 9.3 7.0 73 2.4 WNW 9 15 5 8 1018.9 1016.4 0.0
20/06:30pm 11.7 9.2 6.6 71 2.6 W 9 19 5 10 1018.7 1016.1 0.0
20/06:00pm 12.2 9.8 6.9 70 2.7 NW 9 15 5 8 1018.3 1015.8 0.0
20/05:30pm 12.0 9.1 6.3 68 2.9 WNW 11 20 6 11 1018.2 1015.7 0.0
20/05:00pm 12.5 9.2 6.3 66 3.2 WNW 13 24 7 13 1018.2 1015.7 0.0
20/04:30pm 12.5 9.5 5.9 64 3.4 WNW 11 17 6 9 1018.3 1015.8 0.0
20/04:00pm 13.4 10.0 5.8 60 3.9 WNW 13 26 7 14 1018.4 1015.9 0.0
20/03:30pm 13.1 9.5 5.0 58 4.1 WSW 13 24 7 13 1018.7 1016.1 0.0
20/03:00pm 12.7 8.8 5.4 61 3.7 W 15 22 8 12 1018.8 1016.3 0.0
20/02:30pm 12.7 9.0 4.4 57 4.1 W 13 26 7 14 1019.0 1016.5 0.0
20/02:00pm 13.3 9.1 5.9 61 3.8 W 17 32 9 17 1018.9 1016.4 0.0
20/01:30pm 12.4 8.1 5.3 62 3.6 WSW 17 32 9 17 1018.9 1016.4 0.0
20/01:00pm 12.2 6.5 4.9 61 3.6 WSW 24 37 13 20 1019.1 1016.6 0.0
20/12:30pm 12.3 6.8 3.8 56 4.1 SW 22 37 12 20 1019.2 1016.7 0.0
20/12:00pm 12.4 7.2 3.6 55 4.2 SW 20 35 11 19 1019.2 1016.7 0.0
20/11:30am 11.6 7.2 4.6 62 3.4 SW 17 28 9 15 1019.2 1016.7 0.0
20/11:00am 12.1 7.1 4.8 61 3.6 SW 20 30 11 16 1019.1 1016.6 0.0
20/10:30am 11.4 7.3 4.4 62 3.4 SW 15 28 8 15 1018.9 1016.4 0.0
20/10:00am 11.5 7.7 4.0 60 3.6 SW 13 22 7 12 1018.7 1016.1 0.0

Latest Capital City Observations: Canberra | Sydney | Melbourne | Brisbane | Adelaide | Perth | Hobart | Darwin

Other Formats:

Comma delimited format used in spreadsheet applications
http://www.bom.gov.au/fwo/IDN60903/IDN60903.95909.axf

JavaScript Object Notation format (JSON) in row-major order
http://www.bom.gov.au/fwo/IDN60903/IDN60903.95909.json